Time;durP1;ratioP1;P1;durP2;ratioP2;P2;SDS_P1;SDS_P2;PMS_P1;PMS_P2;Temp;Humidity;BMP_temperature;BMP_pressure;BME280_temperature;BME280_humidity;BME280_pressure;Samples;Min_cycle;Max_cycle;Signal;HPM_P1;HPM_P2
2023/04/14 00:01:07;;;;;;;10.07;4.55;;;;;;;4.99;100.00;100788.25;6090754;23;20871;-76
2023/04/14 00:03:32;;;;;;;10.63;4.32;;;;;;;4.90;100.00;100793.00;6095737;23;20141;-74
2023/04/14 00:05:58;;;;;;;10.02;3.63;;;;;;;4.95;100.00;100792.81;6096700;23;20203;-73
2023/04/14 00:08:26;;;;;;;9.60;3.75;;;;;;;4.62;100.00;100795.03;6096255;23;20052;-76
2023/04/14 00:10:51;;;;;;;6.90;4.00;;;;;;;4.85;100.00;100800.25;6095512;23;20046;-74
2023/04/14 00:13:17;;;;;;;13.85;4.85;;;;;;;4.79;100.00;100797.84;6092360;23;20017;-74
2023/04/14 00:15:43;;;;;;;6.90;4.22;;;;;;;5.00;100.00;100804.03;6092694;23;20093;-73
2023/04/14 00:18:09;;;;;;;12.05;4.50;;;;;;;4.86;100.00;100804.59;6091649;23;20137;-74
2023/04/14 00:20:35;;;;;;;14.15;4.30;;;;;;;4.96;100.00;100804.22;6090628;23;20022;-74
2023/04/14 00:23:01;;;;;;;15.48;5.57;;;;;;;5.02;100.00;100803.97;6094809;23;20020;-73
2023/04/14 00:25:26;;;;;;;12.18;3.80;;;;;;;5.09;100.00;100802.81;6094297;23;20021;-73
2023/04/14 00:27:51;;;;;;;14.10;4.88;;;;;;;5.17;100.00;100804.22;6095175;23;20466;-75
2023/04/14 00:30:17;;;;;;;12.20;4.07;;;;;;;4.92;100.00;100811.44;6097955;23;20017;-74
2023/04/14 00:32:42;;;;;;;7.00;4.38;;;;;;;5.15;100.00;100810.47;6098826;23;20906;-74
2023/04/14 00:35:08;;;;;;;9.05;4.10;;;;;;;5.26;100.00;100802.97;6106357;23;20022;-74
2023/04/14 00:37:34;;;;;;;11.38;4.90;;;;;;;5.15;100.00;100807.84;6102117;23;20018;-74
2023/04/14 00:40:00;;;;;;;10.65;4.68;;;;;;;5.04;100.00;100808.28;6097832;23;20017;-73
2023/04/14 00:42:26;;;;;;;11.70;5.63;;;;;;;5.00;100.00;100819.91;6095206;23;20014;-73
2023/04/14 00:44:51;;;;;;;9.70;4.70;;;;;;;4.92;100.00;100816.72;6100735;23;20013;-74
2023/04/14 00:47:17;;;;;;;14.55;5.00;;;;;;;5.13;100.00;100815.00;6092883;23;20027;-74
2023/04/14 00:49:42;;;;;;;14.05;4.05;;;;;;;5.21;100.00;100815.50;6096239;23;20024;-74
2023/04/14 00:52:10;;;;;;;10.07;4.53;;;;;;;5.18;100.00;100813.88;6096622;23;20450;-74
2023/04/14 00:54:36;;;;;;;12.05;4.70;;;;;;;5.04;100.00;100816.22;6100445;23;20018;-76
2023/04/14 00:57:06;;;;;;;7.30;4.00;;;;;;;4.34;100.00;100819.00;6098407;23;20041;-74
2023/04/14 00:59:31;;;;;;;9.98;3.30;;;;;;;4.49;100.00;100826.31;6098591;23;20361;-74
2023/04/14 01:01:59;;;;;;;6.32;3.40;;;;;;;4.43;100.00;100828.34;6097264;23;20731;-74
2023/04/14 01:04:26;;;;;;;8.25;4.00;;;;;;;4.78;100.00;100825.19;6071630;23;20052;-76
2023/04/14 01:06:53;;;;;;;14.50;4.10;;;;;;;4.76;100.00;100837.59;6094470;23;20014;-76
2023/04/14 01:09:18;;;;;;;14.50;4.78;;;;;;;4.84;100.00;100829.38;6097668;23;20013;-75
2023/04/14 01:12:25;;;;;;;11.15;4.35;;;;;;;4.93;100.00;100827.22;6096129;23;20090;-75
2023/04/14 01:15:07;;;;;;;13.40;5.07;;;;;;;4.91;100.00;100834.34;5985053;23;20023;-75
2023/04/14 01:17:56;;;;;;;7.60;4.10;;;;;;;4.94;100.00;100833.38;5984608;23;20605;-75
2023/04/14 01:20:32;;;;;;;12.07;4.30;;;;;;;4.86;100.00;100843.38;6008446;23;20096;-75
2023/04/14 01:23:18;;;;;;;9.75;4.30;;;;;;;4.44;100.00;100849.41;5984395;23;20011;-76
2023/04/14 01:26:07;;;;;;;12.50;5.05;;;;;;;4.31;100.00;100846.34;5983192;23;20026;-75
2023/04/14 01:28:53;;;;;;;7.18;4.10;;;;;;;3.62;100.00;100846.22;6007219;23;20641;-75
2023/04/14 01:31:30;;;;;;;11.10;4.05;;;;;;;3.35;100.00;100855.06;5981543;23;20019;-76
2023/04/14 01:34:05;;;;;;;6.43;4.13;;;;;;;3.88;100.00;100861.13;5981426;23;20019;-75
2023/04/14 01:36:42;;;;;;;15.00;4.32;;;;;;;4.16;100.00;100857.47;6006675;23;20071;-76
2023/04/14 01:39:19;;;;;;;13.70;4.28;;;;;;;4.19;100.00;100845.97;6008414;23;20019;-76
2023/04/14 01:41:48;;;;;;;9.88;4.15;;;;;;;3.77;100.00;100851.88;6005323;23;20694;-74
2023/04/14 01:44:18;;;;;;;9.23;4.20;;;;;;;4.22;100.00;100845.84;5978538;23;20060;-76
2023/04/14 01:46:45;;;;;;;10.40;4.53;;;;;;;4.05;100.00;100851.75;6006291;23;20023;-75
2023/04/14 01:49:11;;;;;;;13.98;4.95;;;;;;;4.26;100.00;100852.72;6053198;23;20022;-76
2023/04/14 01:51:41;;;;;;;13.50;4.40;;;;;;;4.21;100.00;100852.03;6093987;23;20124;-75
2023/04/14 01:54:10;;;;;;;12.43;4.82;;;;;;;4.47;100.00;100851.94;6098713;23;20311;-75
2023/04/14 01:56:42;;;;;;;10.18;3.95;;;;;;;4.09;100.00;100851.56;6093969;23;20092;-74
2023/04/14 01:59:11;;;;;;;9.27;4.18;;;;;;;4.04;100.00;100861.44;6097328;23;20017;-75
2023/04/14 02:01:38;;;;;;;10.05;3.45;;;;;;;4.15;100.00;100853.13;6096067;23;20050;-76
2023/04/14 02:04:07;;;;;;;10.43;4.20;;;;;;;3.99;100.00;100858.09;6100264;23;20016;-75
2023/04/14 02:06:35;;;;;;;11.48;3.55;;;;;;;3.95;100.00;100859.13;6097980;23;20013;-75
2023/04/14 02:09:09;;;;;;;9.40;3.42;;;;;;;4.01;100.00;100850.97;6095979;23;20120;-75
2023/04/14 02:11:36;;;;;;;10.07;3.55;;;;;;;4.07;100.00;100857.84;6092519;23;20361;-75
2023/04/14 02:14:03;;;;;;;9.38;4.35;;;;;;;4.21;100.00;100852.88;6095558;23;20022;-73
2023/04/14 02:16:32;;;;;;;13.13;4.20;;;;;;;4.28;100.00;100857.03;6096539;23;20109;-73
2023/04/14 02:18:59;;;;;;;8.15;3.75;;;;;;;3.86;100.00;100862.06;6093088;23;20040;-73
2023/04/14 02:21:28;;;;;;;10.27;4.20;;;;;;;4.01;100.00;100863.31;6097137;23;20010;-76
2023/04/14 02:23:54;;;;;;;6.55;3.65;;;;;;;3.90;100.00;100856.66;6095757;23;20016;-73
2023/04/14 02:26:23;;;;;;;9.32;3.72;;;;;;;4.12;100.00;100864.66;6092108;23;20285;-73
2023/04/14 02:28:55;;;;;;;9.43;4.15;;;;;;;4.16;100.00;100871.53;6096149;23;20025;-73
2023/04/14 02:31:24;;;;;;;11.20;4.88;;;;;;;4.11;100.00;100869.97;6094865;23;20026;-74
2023/04/14 02:33:53;;;;;;;6.60;3.85;;;;;;;4.09;100.00;100874.47;6095771;23;20014;-74
2023/04/14 02:36:33;;;;;;;10.30;3.63;;;;;;;3.92;100.00;100872.44;6095829;23;20234;-74
2023/04/14 02:39:10;;;;;;;7.90;4.10;;;;;;;3.71;100.00;100867.91;6096092;23;20072;-73
2023/04/14 02:41:40;;;;;;;11.48;3.90;;;;;;;3.29;100.00;100873.72;6096783;23;20069;-73
2023/04/14 02:44:16;;;;;;;7.32;4.00;;;;;;;3.28;100.00;100880.75;6093401;23;20720;-73
2023/04/14 02:47:02;;;;;;;8.20;3.75;;;;;;;3.60;100.00;100879.66;6094381;23;20018;-72
2023/04/14 02:49:38;;;;;;;13.98;4.93;;;;;;;3.81;100.00;100871.94;6090716;23;20045;-73
2023/04/14 02:52:14;;;;;;;10.30;4.57;;;;;;;3.81;100.00;100875.44;6096201;23;20018;-75
2023/04/14 02:54:42;;;;;;;11.65;3.97;;;;;;;3.48;100.00;100879.25;6068513;23;20022;-72
2023/04/14 02:57:09;;;;;;;6.65;3.65;;;;;;;2.90;100.00;100883.75;6095338;23;20021;-74
2023/04/14 02:59:40;;;;;;;6.55;3.00;;;;;;;2.87;100.00;100883.84;6094406;23;20452;-75
2023/04/14 03:02:11;;;;;;;8.95;4.13;;;;;;;3.37;100.00;100884.88;6092450;23;20045;-75
2023/04/14 03:04:41;;;;;;;9.13;4.10;;;;;;;3.71;100.00;100881.06;6091473;23;20036;-76
2023/04/14 03:07:16;;;;;;;12.07;5.40;;;;;;;3.83;100.00;100878.03;6095512;23;20057;-74
2023/04/14 03:09:43;;;;;;;6.93;4.50;;;;;;;3.74;100.00;100880.97;6095003;23;20136;-75
2023/04/14 03:12:12;;;;;;;8.20;3.85;;;;;;;3.57;100.00;100887.69;6095473;23;20045;-74
2023/04/14 03:14:40;;;;;;;5.72;3.28;;;;;;;3.20;100.00;100881.91;6095649;23;20560;-75
2023/04/14 03:17:06;;;;;;;6.07;3.28;;;;;;;3.17;100.00;100872.34;6094658;23;20014;-75
2023/04/14 03:19:33;;;;;;;5.88;3.30;;;;;;;3.21;100.00;100879.22;6095543;23;20844;-75
2023/04/14 03:22:00;;;;;;;5.43;3.38;;;;;;;3.36;100.00;100872.59;6091974;23;20348;-75
2023/04/14 03:24:29;;;;;;;6.80;3.53;;;;;;;3.23;100.00;100869.50;6092226;23;20398;-75
2023/04/14 03:27:03;;;;;;;8.50;3.95;;;;;;;3.07;100.00;100876.19;6091805;23;20013;-73
2023/04/14 03:29:36;;;;;;;9.20;4.80;;;;;;;2.95;100.00;100879.19;6091815;23;20021;-75
2023/04/14 03:32:05;;;;;;;7.18;4.03;;;;;;;3.34;100.00;100877.91;6089962;23;20417;-76
2023/04/14 03:34:45;;;;;;;8.98;4.45;;;;;;;3.36;100.00;100881.38;6092423;23;20025;-75
2023/04/14 03:37:16;;;;;;;10.82;4.25;;;;;;;2.89;100.00;100876.75;6092221;23;20009;-75
2023/04/14 03:39:46;;;;;;;7.40;3.75;;;;;;;3.11;100.00;100873.41;6091922;23;20064;-75
2023/04/14 03:42:12;;;;;;;7.43;3.55;;;;;;;3.31;100.00;100885.94;6096377;23;20113;-75
2023/04/14 03:44:44;;;;;;;8.48;4.53;;;;;;;3.18;100.00;100883.75;6091702;23;20068;-75
2023/04/14 03:47:11;;;;;;;13.27;3.90;;;;;;;3.09;100.00;100890.16;6088928;23;20097;-75
2023/04/14 03:49:39;;;;;;;7.00;3.80;;;;;;;3.15;100.00;100895.22;6090406;23;20010;-75
2023/04/14 03:52:13;;;;;;;10.60;4.28;;;;;;;3.32;100.00;100894.69;6093218;23;20018;-75
2023/04/14 03:54:42;;;;;;;12.98;4.22;;;;;;;3.23;100.00;100893.22;6094870;23;20137;-75
2023/04/14 03:57:16;;;;;;;9.63;4.47;;;;;;;3.29;100.00;100903.56;6099072;23;20017;-76
2023/04/14 03:59:44;;;;;;;6.88;4.35;;;;;;;3.41;100.00;100898.78;6094931;23;20555;-75
2023/04/14 04:02:10;;;;;;;9.52;4.20;;;;;;;3.27;100.00;100900.13;6091480;23;20101;-75
2023/04/14 04:04:36;;;;;;;11.52;4.25;;;;;;;2.89;100.00;100908.34;6095347;23;20014;-75
2023/04/14 04:07:03;;;;;;;11.73;5.90;;;;;;;2.92;100.00;100908.28;6093164;23;20021;-75
2023/04/14 04:09:35;;;;;;;7.97;3.72;;;;;;;2.99;100.00;100905.38;6089551;23;20250;-76
2023/04/14 04:12:03;;;;;;;10.88;3.92;;;;;;;2.98;100.00;100908.94;6121579;23;20080;-75
2023/04/14 04:14:32;;;;;;;10.63;4.93;;;;;;;2.98;100.00;100903.66;6099001;23;20029;-75
2023/04/14 04:17:05;;;;;;;16.20;4.70;;;;;;;3.21;100.00;100896.81;6104349;23;20508;-74
2023/04/14 04:19:33;;;;;;;10.38;5.07;;;;;;;3.41;100.00;100898.78;6097045;23;20096;-75
2023/04/14 04:22:00;;;;;;;12.38;5.78;;;;;;;3.42;100.00;100900.53;6092984;23;20049;-74
2023/04/14 04:24:29;;;;;;;17.30;4.50;;;;;;;3.49;100.00;100902.03;6091863;23;20100;-74
2023/04/14 04:26:57;;;;;;;13.27;5.50;;;;;;;2.97;100.00;100901.97;6093126;23;20018;-73
2023/04/14 04:29:25;;;;;;;11.25;4.63;;;;;;;2.52;100.00;100902.44;6088966;23;20018;-74
2023/04/14 04:31:51;;;;;;;11.48;5.57;;;;;;;2.31;100.00;100918.84;6091039;23;20014;-74
2023/04/14 04:34:18;;;;;;;13.30;5.93;;;;;;;2.81;100.00;100920.00;6095867;23;20663;-74
2023/04/14 04:36:46;;;;;;;16.45;5.82;;;;;;;2.75;100.00;100919.31;6068925;23;20025;-74
2023/04/14 04:39:11;;;;;;;16.70;6.78;;;;;;;2.96;100.00;100925.69;6092523;23;20771;-73
2023/04/14 04:41:39;;;;;;;10.75;5.15;;;;;;;2.50;100.00;100922.66;6093134;23;20081;-74
2023/04/14 04:44:05;;;;;;;9.57;4.28;;;;;;;2.66;100.00;100923.09;6090915;23;20100;-76
2023/04/14 04:46:43;;;;;;;9.73;4.53;;;;;;;2.62;100.00;100920.59;6093690;23;20068;-76
2023/04/14 04:49:08;;;;;;;9.02;4.80;;;;;;;2.77;100.00;100925.41;6093983;23;20014;-73
2023/04/14 04:51:35;;;;;;;13.00;4.65;;;;;;;2.76;100.00;100919.28;6094721;23;20795;-75
2023/04/14 04:54:01;;;;;;;10.00;4.70;;;;;;;2.94;100.00;100924.88;6098659;23;20025;-73
2023/04/14 04:56:26;;;;;;;9.38;4.65;;;;;;;2.77;100.00;100928.91;6096362;23;20507;-76
2023/04/14 04:58:52;;;;;;;13.48;4.80;;;;;;;2.75;100.00;100933.31;6098455;23;20076;-76
2023/04/14 05:01:18;;;;;;;11.70;3.85;;;;;;;2.53;100.00;100924.34;6099714;23;20021;-75
2023/04/14 05:03:45;;;;;;;13.15;5.05;;;;;;;2.90;100.00;100932.00;6096530;23;20038;-75
2023/04/14 05:06:11;;;;;;;18.90;5.68;;;;;;;2.98;100.00;100924.75;6096175;23;20370;-74
2023/04/14 05:08:37;;;;;;;10.95;5.57;;;;;;;3.07;100.00;100919.19;6093645;23;20037;-73
2023/04/14 05:11:02;;;;;;;11.90;6.35;;;;;;;3.15;100.00;100918.09;6091993;23;20859;-74
2023/04/14 05:13:28;;;;;;;18.85;6.38;;;;;;;3.48;100.00;100913.50;6093271;23;20018;-74
2023/04/14 05:16:07;;;;;;;11.07;6.43;;;;;;;3.41;100.00;100911.97;6091779;23;20714;-74
2023/04/14 05:18:35;;;;;;;14.88;6.63;;;;;;;3.54;100.00;100910.66;6095144;23;20073;-73
2023/04/14 05:21:09;;;;;;;15.30;6.07;;;;;;;3.97;100.00;100909.22;6098493;23;20045;-74
2023/04/14 05:23:36;;;;;;;10.52;6.05;;;;;;;4.22;100.00;100909.16;6092605;23;20014;-73
2023/04/14 05:26:03;;;;;;;13.02;6.90;;;;;;;4.24;100.00;100908.22;6095544;23;20021;-74
2023/04/14 05:28:30;;;;;;;15.75;7.35;;;;;;;4.52;100.00;100907.19;6093237;23;20021;-73
2023/04/14 05:30:58;;;;;;;13.77;5.22;;;;;;;3.93;100.00;100907.59;6094172;23;20096;-74
2023/04/14 05:33:24;;;;;;;12.25;5.00;;;;;;;4.14;100.00;100907.69;6091833;23;20045;-74
2023/04/14 05:35:50;;;;;;;20.23;5.53;;;;;;;4.52;100.00;100912.47;6094872;23;20167;-74
2023/04/14 05:38:19;;;;;;;19.65;5.30;;;;;;;4.83;100.00;100907.78;6089334;23;20057;-73
2023/04/14 05:40:45;;;;;;;12.25;6.10;;;;;;;4.88;100.00;100915.53;6095266;23;20010;-74
2023/04/14 05:43:11;;;;;;;9.82;4.65;;;;;;;4.93;100.00;100916.19;6095715;23;20017;-74
2023/04/14 05:45:36;;;;;;;14.93;5.40;;;;;;;5.07;100.00;100918.28;6094354;23;20369;-74
2023/04/14 05:48:02;;;;;;;8.30;4.60;;;;;;;5.23;100.00;100921.22;6094018;23;20017;-76
2023/04/14 05:50:32;;;;;;;11.55;5.05;;;;;;;5.49;100.00;100914.84;6091354;23;20014;-76
2023/04/14 05:52:58;;;;;;;17.13;6.85;;;;;;;5.84;100.00;100908.09;6090718;23;20241;-75
2023/04/14 05:55:23;;;;;;;13.85;6.25;;;;;;;5.55;100.00;100912.81;6093366;23;20728;-76
2023/04/14 05:57:49;;;;;;;16.92;6.18;;;;;;;5.73;100.00;100913.84;6094329;23;20018;-76
2023/04/14 06:00:18;;;;;;;12.32;5.45;;;;;;;6.49;100.00;100907.84;6090463;23;20018;-74
2023/04/14 06:02:44;;;;;;;15.25;5.13;;;;;;;6.70;100.00;100915.75;6094287;23;20018;-76
2023/04/14 06:05:11;;;;;;;14.60;5.82;;;;;;;7.36;100.00;100909.97;6092705;23;20076;-77
2023/04/14 06:07:40;;;;;;;12.23;6.00;;;;;;;7.31;100.00;100923.44;6092244;23;20021;-76
2023/04/14 06:10:07;;;;;;;16.83;6.63;;;;;;;7.89;100.00;100909.09;6096954;23;20018;-75
2023/04/14 06:12:41;;;;;;;13.75;6.30;;;;;;;8.31;100.00;100908.66;6093807;23;20014;-75
2023/04/14 06:15:07;;;;;;;;;;;;;;;8.36;100.00;100908.41;6096310;23;20018;-76
2023/04/14 06:17:39;;;;;;;15.45;6.63;;;;;;;9.24;95.03;100916.00;6094895;23;19917;-75
2023/04/14 06:20:06;;;;;;;20.17;5.60;;;;;;;9.37;93.67;100900.19;6095491;23;20076;-76
2023/04/14 06:22:31;;;;;;;16.75;5.45;;;;;;;9.70;92.77;100898.22;6092045;23;20092;-75
2023/04/14 06:24:57;;;;;;;16.95;5.88;;;;;;;10.42;85.93;100896.56;6091220;23;20706;-76
2023/04/14 06:27:25;;;;;;;11.23;5.38;;;;;;;10.71;83.13;100889.44;6091786;23;20628;-75
2023/04/14 06:29:51;;;;;;;16.92;7.20;;;;;;;11.22;79.53;100887.03;6090218;23;20010;-75
2023/04/14 06:32:20;;;;;;;12.77;5.45;;;;;;;10.72;79.27;100891.13;6094133;23;20025;-76
2023/04/14 06:34:47;;;;;;;11.13;5.72;;;;;;;10.47;84.24;100894.47;6092054;23;20053;-75
2023/04/14 06:37:15;;;;;;;13.98;5.40;;;;;;;10.50;84.00;100891.63;6096114;23;20014;-74
2023/04/14 06:39:40;;;;;;;11.55;5.63;;;;;;;10.23;85.96;100896.81;6093613;23;20028;-76
2023/04/14 06:42:06;;;;;;;13.55;5.40;;;;;;;10.70;83.07;100889.53;6091280;23;20022;-75
2023/04/14 06:44:31;;;;;;;13.52;5.15;;;;;;;11.20;79.57;100888.09;6093889;23;20021;-76
2023/04/14 06:46:58;;;;;;;9.35;5.95;;;;;;;10.61;84.35;100890.97;6095711;23;20014;-75
2023/04/14 06:49:23;;;;;;;12.98;5.45;;;;;;;10.92;80.10;100889.00;6093607;23;20018;-76
2023/04/14 06:51:49;;;;;;;12.02;5.50;;;;;;;10.88;82.91;100883.84;6090472;23;20115;-75
2023/04/14 06:54:15;;;;;;;15.57;5.53;;;;;;;10.96;83.64;100883.38;6095270;23;20014;-75
2023/04/14 06:56:40;;;;;;;14.52;5.80;;;;;;;11.54;81.39;100881.38;6092448;23;20021;-76
2023/04/14 06:59:06;;;;;;;10.68;5.80;;;;;;;11.24;80.88;100884.25;6092691;23;20257;-76
2023/04/14 07:01:31;;;;;;;12.70;5.75;;;;;;;11.84;78.17;100876.66;6093513;23;20450;-76
2023/04/14 07:03:57;;;;;;;18.85;7.53;;;;;;;12.34;77.49;100879.47;6089647;23;20010;-76
2023/04/14 07:06:23;;;;;;;13.60;5.55;;;;;;;12.80;75.67;100878.88;6090225;23;20359;-75
2023/04/14 07:08:49;;;;;;;8.95;5.15;;;;;;;12.60;75.17;100875.81;6091769;23;20009;-75
2023/04/14 07:11:18;;;;;;;10.40;4.95;;;;;;;13.42;72.55;100866.25;6090315;23;20017;-76
2023/04/14 07:13:43;;;;;;;9.13;5.30;;;;;;;13.93;70.69;100862.41;6094241;23;20014;-75
2023/04/14 07:16:09;;;;;;;9.98;4.88;;;;;;;13.62;74.07;100858.56;6093277;23;20025;-75
2023/04/14 07:18:35;;;;;;;12.13;5.38;;;;;;;13.50;73.36;100862.13;6097443;23;20018;-76
2023/04/14 07:21:01;;;;;;;9.73;5.10;;;;;;;14.73;67.86;100849.81;6092554;23;20010;-75
2023/04/14 07:23:27;;;;;;;15.65;5.55;;;;;;;13.75;72.65;100853.94;6094440;23;20088;-76
2023/04/14 07:25:55;;;;;;;12.35;4.88;;;;;;;14.04;70.95;100853.53;6093265;23;20025;-76
2023/04/14 07:28:22;;;;;;;13.35;4.50;;;;;;;14.46;67.06;100854.69;6090347;23;20024;-75
2023/04/14 07:30:48;;;;;;;11.77;4.15;;;;;;;14.75;65.25;100845.16;6094295;23;20018;-75
2023/04/14 07:33:21;;;;;;;10.27;4.82;;;;;;;14.84;65.53;100854.31;6093176;23;20041;-75
2023/04/14 07:35:50;;;;;;;;;;;;;;;13.90;65.05;100854.59;6094952;23;20116;-75
2023/04/14 07:38:16;;;;;;;14.60;4.50;;;;;;;13.65;66.63;100860.97;6093807;23;19913;-75
2023/04/14 07:40:41;;;;;;;16.35;4.78;;;;;;;15.14;62.79;100850.94;6098132;23;20145;-75
2023/04/14 07:43:10;;;;;;;12.88;5.10;;;;;;;15.66;62.58;100854.72;6099626;23;20009;-75
2023/04/14 07:45:37;;;;;;;9.93;4.15;;;;;;;14.48;64.46;100860.81;6096220;23;20034;-76
2023/04/14 07:48:03;;;;;;;14.18;4.45;;;;;;;14.12;63.31;100854.66;6093872;23;20014;-76
2023/04/14 07:50:29;;;;;;;12.23;4.30;;;;;;;14.23;64.08;100851.13;6090908;23;20101;-75
2023/04/14 07:52:54;;;;;;;13.18;4.57;;;;;;;14.34;64.02;100850.28;6091708;23;20010;-75
2023/04/14 07:55:20;;;;;;;16.58;5.43;;;;;;;14.19;64.74;100847.81;6089738;23;20013;-76
2023/04/14 07:57:45;;;;;;;11.55;4.50;;;;;;;15.35;64.27;100855.53;6094635;23;20767;-74
2023/04/14 08:00:11;;;;;;;13.18;4.55;;;;;;;15.79;64.01;100833.84;6095951;23;20430;-75
2023/04/14 08:02:40;;;;;;;14.55;5.15;;;;;;;15.57;61.42;100842.00;6093689;23;20076;-75
2023/04/14 08:05:06;;;;;;;7.38;3.83;;;;;;;14.95;61.10;100846.22;6092128;23;20108;-76
2023/04/14 08:07:32;;;;;;;15.77;4.32;;;;;;;14.82;62.15;100842.84;6094283;23;20010;-76
2023/04/14 08:09:58;;;;;;;10.55;4.13;;;;;;;15.14;60.53;100844.72;6095389;23;20010;-75
2023/04/14 08:12:24;;;;;;;15.73;4.43;;;;;;;14.29;63.34;100845.28;6092943;23;20025;-75
2023/04/14 08:14:51;;;;;;;17.50;6.15;;;;;;;15.20;61.70;100842.38;6094538;23;20764;-75
2023/04/14 08:17:17;;;;;;;11.82;4.47;;;;;;;15.05;62.87;100846.34;6093634;23;20028;-75
2023/04/14 08:19:43;;;;;;;11.43;4.00;;;;;;;15.11;60.89;100844.97;6092178;23;20489;-73
2023/04/14 08:22:08;;;;;;;13.75;4.45;;;;;;;15.85;63.09;100845.91;6092541;23;20014;-75
2023/04/14 08:24:34;;;;;;;14.30;4.55;;;;;;;15.92;61.27;100840.88;6097327;23;20006;-75
2023/04/14 08:27:03;;;;;;;13.15;3.65;;;;;;;15.31;58.00;100841.50;6092054;23;20073;-75
2023/04/14 08:29:28;;;;;;;16.02;4.53;;;;;;;15.73;59.70;100844.28;6100903;23;20021;-74
2023/04/14 08:31:54;;;;;;;8.60;3.58;;;;;;;15.69;59.58;100841.00;6094902;23;20016;-75
2023/04/14 08:34:20;;;;;;;12.85;3.60;;;;;;;15.60;59.75;100836.38;6087539;23;20014;-75
2023/04/14 08:39:37;;;;;;;8.25;2.75;;;;;;;15.27;59.96;100834.69;6062700;23;20033;-72
2023/04/14 08:44:52;;;;;;;11.73;3.00;;;;;;;15.13;60.02;100833.13;6083174;23;20077;-70
2023/04/14 08:47:20;;;;;;;18.13;3.30;;;;;;;14.66;63.01;100840.56;6093445;23;20467;-71
2023/04/14 08:49:55;;;;;;;9.55;3.60;;;;;;;14.36;60.19;100833.09;6090382;23;20014;-69
2023/04/14 08:52:26;;;;;;;7.13;2.97;;;;;;;14.18;62.30;100832.72;6086126;23;20121;-69
2023/04/14 08:54:55;;;;;;;11.27;2.63;;;;;;;13.89;63.23;100834.13;6098642;23;20054;-67
2023/04/14 08:57:23;;;;;;;14.68;2.60;;;;;;;14.08;63.28;100831.72;6094999;23;20018;-67
2023/04/14 08:59:49;;;;;;;7.20;2.50;;;;;;;14.85;61.62;100839.91;6095631;23;20424;-68
2023/04/14 09:02:17;;;;;;;8.45;2.50;;;;;;;14.99;59.25;100828.03;6089897;23;20105;-66
2023/04/14 09:04:44;;;;;;;8.63;3.10;;;;;;;15.38;60.13;100829.25;6094867;23;20240;-67
2023/04/14 09:07:11;;;;;;;7.00;3.08;;;;;;;15.92;58.97;100827.44;6095875;23;20186;-67
2023/04/14 09:12:19;;;;;;;11.80;2.90;;;;;;;15.51;58.75;100819.19;6090027;23;20743;-71
2023/04/14 09:14:45;;;;;;;11.90;2.47;;;;;;;15.22;58.53;100824.31;6096386;23;20412;-69
2023/04/14 09:19:49;;;;;;;9.40;2.55;;;;;;;14.71;59.73;100824.94;6071380;23;20073;-66
2023/04/14 09:22:19;;;;;;;6.07;2.20;;;;;;;14.66;57.34;100821.78;6093843;23;20340;-67
2023/04/14 09:24:47;;;;;;;12.05;2.53;;;;;;;15.37;56.51;100821.34;6065082;23;20026;-67
2023/04/14 09:27:13;;;;;;;6.47;1.90;;;;;;;15.54;55.50;100810.84;6064983;23;20010;-68
2023/04/14 09:29:39;;;;;;;6.65;2.72;;;;;;;15.42;55.18;100816.44;6064592;23;20022;-67
2023/04/14 09:32:06;;;;;;;13.85;2.28;;;;;;;16.15;56.40;100810.13;6065668;23;20018;-66
2023/04/14 09:34:31;;;;;;;4.50;1.90;;;;;;;16.01;54.96;100814.06;6060671;23;20362;-68
2023/04/14 09:37:09;;;;;;;6.30;2.10;;;;;;;16.14;53.58;100804.91;6062042;23;20022;-68
2023/04/14 09:39:46;;;;;;;7.75;1.90;;;;;;;15.64;55.30;100805.59;6064474;23;20010;-68
2023/04/14 09:45:03;;;;;;;7.43;2.08;;;;;;;16.38;55.22;100800.06;6045924;23;20160;-70
2023/04/14 09:47:30;;;;;;;7.03;3.13;;;;;;;16.11;53.98;100797.94;6092855;23;20121;-70
2023/04/14 09:49:59;;;;;;;11.73;2.28;;;;;;;15.45;52.73;100795.50;6096503;23;20020;-71
2023/04/14 09:52:43;;;;;;;7.03;1.90;;;;;;;15.99;53.98;100807.94;6069066;23;20045;-71
2023/04/14 09:55:14;;;;;;;8.05;1.90;;;;;;;14.72;53.38;100799.81;6093573;23;20018;-71
2023/04/14 09:57:46;;;;;;;10.23;1.80;;;;;;;14.13;53.58;100805.41;6095901;23;20464;-69
2023/04/14 10:00:14;;;;;;;5.60;1.90;;;;;;;14.76;54.65;100805.78;6097356;23;20022;-69
2023/04/14 10:02:47;;;;;;;2.85;1.60;;;;;;;15.10;55.46;100802.97;6094951;23;20018;-71
2023/04/14 10:05:12;;;;;;;;;;;;;;;15.95;53.57;100798.41;6098024;23;20326;-70
2023/04/14 10:07:41;;;;;;;8.02;1.92;;;;;;;15.59;51.38;100798.88;6096693;23;19938;-71
2023/04/14 10:10:10;;;;;;;12.05;2.97;;;;;;;15.24;53.78;100797.31;6097376;23;20048;-71
2023/04/14 10:12:36;;;;;;;5.97;2.40;;;;;;;14.97;55.37;100797.78;6098109;23;20024;-70
2023/04/14 10:15:02;;;;;;;9.18;2.00;;;;;;;14.73;55.70;100797.97;6098009;23;20021;-71
2023/04/14 10:17:28;;;;;;;7.20;2.20;;;;;;;14.90;53.85;100788.53;6096005;23;20262;-72
2023/04/14 10:19:53;;;;;;;11.73;2.15;;;;;;;14.36;54.08;100792.00;6096906;23;20084;-72
2023/04/14 10:22:21;;;;;;;8.73;2.78;;;;;;;15.10;52.98;100787.72;6096511;23;20010;-72
2023/04/14 10:24:48;;;;;;;15.35;2.55;;;;;;;15.84;53.83;100782.38;6094919;23;20049;-72
2023/04/14 10:27:14;;;;;;;8.20;1.77;;;;;;;14.52;51.69;100788.97;6069266;23;20048;-73
2023/04/14 10:29:41;;;;;;;4.40;1.67;;;;;;;14.52;49.85;100787.16;6095639;23;20434;-71
2023/04/14 10:32:13;;;;;;;6.35;1.48;;;;;;;14.72;51.23;100783.69;6092744;23;20790;-70
2023/04/14 10:34:52;;;;;;;6.22;1.40;;;;;;;14.98;49.47;100781.53;6096453;23;20018;-70
2023/04/14 10:37:17;;;;;;;6.00;1.40;;;;;;;15.10;50.41;100782.34;6095894;23;20025;-70
2023/04/14 10:39:54;;;;;;;5.95;1.70;;;;;;;15.92;52.87;100782.56;6094995;23;20109;-71
2023/04/14 10:42:20;;;;;;;6.88;1.55;;;;;;;15.88;50.83;100773.06;6093376;23;20029;-70
2023/04/14 10:45:02;;;;;;;3.88;1.60;;;;;;;17.08;48.75;100760.56;6093771;23;20076;-71
2023/04/14 10:47:28;;;;;;;4.53;1.77;;;;;;;16.76;49.96;100760.78;6093423;23;20018;-72
2023/04/14 10:49:55;;;;;;;8.55;1.70;;;;;;;16.73;50.97;100769.16;6096755;23;20014;-71
2023/04/14 10:52:21;;;;;;;7.07;1.75;;;;;;;16.60;49.44;100766.69;6093908;23;20528;-70
2023/04/14 10:55:06;;;;;;;6.57;2.03;;;;;;;15.71;48.55;100776.34;6096368;23;20022;-72
2023/04/14 10:57:39;;;;;;;5.65;2.22;;;;;;;15.11;48.62;100765.28;6098487;23;20018;-70
2023/04/14 11:00:21;;;;;;;4.13;2.13;;;;;;;15.54;51.39;100769.69;6098092;23;20010;-70
2023/04/14 11:03:04;;;;;;;7.00;3.47;;;;;;;16.14;52.55;100767.22;6094731;23;20014;-70
2023/04/14 11:05:34;;;;;;;5.68;2.95;;;;;;;16.29;54.38;100763.19;6095546;23;20121;-71
2023/04/14 11:08:10;;;;;;;6.18;2.15;;;;;;;15.99;49.94;100764.06;6096859;23;20226;-75
2023/04/14 11:10:36;;;;;;;6.97;2.70;;;;;;;14.64;53.33;100764.66;6094617;23;20100;-72
2023/04/14 11:13:07;;;;;;;12.40;3.60;;;;;;;15.16;53.53;100756.81;6094876;23;20009;-72
2023/04/14 11:16:01;;;;;;;7.70;3.05;;;;;;;15.83;52.74;100752.94;6094699;23;20085;-74
2023/04/14 11:18:44;;;;;;;9.70;2.00;;;;;;;15.94;50.48;100748.31;6092745;23;20061;-72
2023/04/14 11:21:12;;;;;;;;;;;;;;;15.75;50.86;100753.56;6096072;23;20014;-69
2023/04/14 11:23:37;;;;;;;5.32;2.00;;;;;;;15.52;51.78;100752.84;6094032;23;19920;-71
2023/04/14 11:26:08;;;;;;;6.97;2.05;;;;;;;15.25;52.86;100745.28;6097317;23;20045;-72
2023/04/14 11:28:36;;;;;;;5.03;2.00;;;;;;;15.52;52.04;100751.03;6094147;23;20081;-72
2023/04/14 11:31:07;;;;;;;5.97;2.10;;;;;;;15.34;53.80;100754.41;6093729;23;20073;-71
2023/04/14 11:33:40;;;;;;;7.95;2.70;;;;;;;15.84;51.82;100742.03;6094476;23;20196;-71
2023/04/14 11:36:08;;;;;;;7.40;2.28;;;;;;;15.83;53.06;100737.66;6093284;23;20022;-72
2023/04/14 11:38:39;;;;;;;6.75;2.20;;;;;;;15.34;53.30;100746.34;6094971;23;20099;-73
2023/04/14 11:41:05;;;;;;;7.32;2.78;;;;;;;14.73;52.39;100744.28;6096959;23;20021;-71
2023/04/14 11:43:31;;;;;;;7.25;2.47;;;;;;;14.42;53.51;100733.34;6095093;23;20016;-71